Time;durP1;ratioP1;P1;durP2;ratioP2;P2;SDS_P1;SDS_P2;PMS_P1;PMS_P2;Temp;Humidity;BMP_temperature;BMP_pressure;BME280_temperature;BME280_humidity;BME280_pressure;Samples;Min_cycle;Max_cycle;Signal;HPM_P1;HPM_P2
2021/04/11 00:02:12;;;;;;;13.32;6.47;;;11.30;97.70;;;10.64;86.47;99595.34;4995500;28;20046;-81
2021/04/11 00:04:39;;;;;;;11.13;7.30;;;11.30;97.80;;;10.65;86.12;99586.97;4996314;28;20061;-81
2021/04/11 00:07:06;;;;;;;15.30;6.85;;;11.30;97.60;;;10.66;86.15;99585.06;4996469;28;20057;-81
2021/04/11 00:09:33;;;;;;;9.00;6.00;;;11.20;97.70;;;10.67;85.98;99592.22;4995095;28;20565;-81
2021/04/11 00:12:00;;;;;;;10.00;6.10;;;11.20;97.60;;;10.67;86.14;99590.31;4996563;28;20046;-81
2021/04/11 00:14:26;;;;;;;14.60;7.30;;;11.20;97.90;;;10.67;86.11;99584.03;4996252;28;20116;-81
2021/04/11 00:16:53;;;;;;;14.40;6.80;;;11.20;97.90;;;10.64;86.35;99582.59;4996379;28;20046;-81
2021/04/11 00:19:20;;;;;;;12.48;7.03;;;11.20;97.80;;;10.64;86.09;99579.00;5000059;28;20044;-81
2021/04/11 00:21:48;;;;;;;11.07;6.40;;;11.20;97.80;;;10.66;85.98;99574.19;5000884;28;20050;-81
2021/04/11 00:24:14;;;;;;;11.45;6.80;;;11.20;97.70;;;10.66;86.06;99582.34;4998854;28;20046;-81
2021/04/11 00:26:41;;;;;;;10.40;6.93;;;11.20;98.00;;;10.64;86.07;99571.69;4998793;28;20050;-81
2021/04/11 00:29:08;;;;;;;9.18;6.28;;;11.20;98.20;;;10.65;86.12;99567.09;4999588;28;20042;-81
2021/04/11 00:31:35;;;;;;;12.90;7.40;;;11.20;98.20;;;10.66;86.34;99563.31;4999904;28;20053;-81
2021/04/11 00:34:02;;;;;;;11.43;6.70;;;11.20;98.90;;;10.63;86.46;99559.13;4999951;28;20042;-81
2021/04/11 00:36:29;;;;;;;10.82;7.05;;;11.10;98.90;;;10.64;86.33;99554.50;4999299;28;20488;-81
2021/04/11 00:38:57;;;;;;;13.77;7.60;;;11.20;99.00;;;10.66;85.97;99557.88;4998095;28;20046;-82
2021/04/11 00:41:28;;;;;;;8.30;5.50;;;11.10;98.80;;;10.64;86.60;99558.09;4999195;28;20113;-81
2021/04/11 00:43:56;;;;;;;12.75;6.95;;;11.10;99.00;;;10.64;86.16;99557.25;4999440;28;20081;-81
2021/04/11 00:46:39;;;;;;;10.27;5.88;;;11.10;99.00;;;10.62;86.35;99554.72;4999691;28;20050;-81
2021/04/11 00:49:14;;;;;;;11.52;6.60;;;11.10;98.70;;;10.63;86.30;99559.13;4998736;28;20109;-81
2021/04/11 00:51:41;;;;;;;10.52;7.20;;;11.10;99.10;;;10.62;86.44;99562.06;4997364;28;20078;-81
2021/04/11 00:54:10;;;;;;;9.38;5.82;;;11.10;99.20;;;10.63;86.15;99552.84;4998946;28;20046;-81
2021/04/11 00:56:38;;;;;;;10.68;6.97;;;11.10;99.10;;;10.63;86.47;99541.97;5001041;28;20053;-81
2021/04/11 00:59:07;;;;;;;10.18;6.65;;;11.10;99.20;;;10.60;86.43;99536.94;4998259;28;20129;-81
2021/04/11 01:01:36;;;;;;;9.10;6.63;;;11.00;99.20;;;10.62;86.43;99540.28;4997649;28;20050;-81
2021/04/11 01:04:04;;;;;;;14.10;6.90;;;11.10;99.30;;;10.62;86.08;99540.28;4998231;28;20513;-81
2021/04/11 01:06:36;;;;;;;10.65;6.35;;;11.00;99.20;;;10.64;85.83;99540.91;4997885;28;20074;-81
2021/04/11 01:09:13;;;;;;;9.57;6.55;;;11.00;99.30;;;10.63;85.86;99531.09;4996406;28;20053;-81
2021/04/11 01:11:41;;;;;;;11.10;7.00;;;11.10;99.50;;;10.62;86.12;99529.41;4996984;28;20054;-81
2021/04/11 01:14:10;;;;;;;10.60;6.85;;;11.00;99.40;;;10.60;86.24;99531.50;4996233;28;20525;-81
2021/04/11 01:16:39;;;;;;;14.32;7.57;;;11.00;99.40;;;10.55;86.71;99527.53;4997927;28;20046;-81
2021/04/11 01:19:08;;;;;;;11.60;6.30;;;11.00;99.40;;;10.59;86.29;99529.84;4997126;28;20440;-81
2021/04/11 01:22:02;;;;;;;10.90;6.97;;;11.00;99.20;;;10.58;86.19;99528.97;4998639;28;20129;-81
2021/04/11 01:24:38;;;;;;;11.32;7.43;;;11.00;99.00;;;10.60;86.16;99515.19;4997639;28;20502;-81
2021/04/11 01:27:09;;;;;;;14.80;7.50;;;11.00;99.00;;;10.62;86.01;99518.53;4995566;28;20074;-81
2021/04/11 01:29:38;;;;;;;10.85;7.07;;;11.00;99.10;;;10.60;86.20;99528.78;4996430;28;20125;-81
2021/04/11 01:32:07;;;;;;;11.38;7.47;;;11.00;99.20;;;10.60;86.01;99516.00;4999274;28;20066;-81
2021/04/11 01:34:35;;;;;;;12.00;7.72;;;11.00;99.10;;;10.60;86.15;99520.63;4998903;28;20038;-81
2021/04/11 01:37:04;;;;;;;12.13;7.10;;;10.90;99.20;;;10.57;86.13;99522.72;4997932;28;20514;-81
2021/04/11 01:39:36;;;;;;;11.63;7.95;;;11.00;99.20;;;10.57;86.36;99511.81;4996929;28;20043;-81
2021/04/11 01:42:06;;;;;;;18.70;9.70;;;11.00;99.20;;;10.60;86.27;99515.19;5012744;28;20046;-81
2021/04/11 01:44:37;;;;;;;11.25;7.45;;;11.10;99.30;;;10.60;86.24;99515.19;4995724;28;20046;-81
2021/04/11 01:47:05;;;;;;;11.05;8.15;;;11.10;99.20;;;10.61;86.35;99511.41;4998003;28;20061;-81
2021/04/11 01:49:39;;;;;;;14.25;8.48;;;11.00;99.40;;;10.62;85.84;99507.63;4997435;28;20035;-81
2021/04/11 01:52:12;;;;;;;16.15;8.73;;;11.00;99.50;;;10.61;86.29;99500.53;4996390;28;20054;-81
2021/04/11 01:54:41;;;;;;;12.13;8.55;;;11.00;99.50;;;10.61;86.37;99505.97;4996190;28;20082;-81
2021/04/11 01:57:17;;;;;;;11.35;8.07;;;11.00;99.70;;;10.62;86.22;99496.75;4995560;28;20049;-81
2021/04/11 01:59:45;;;;;;;12.18;8.48;;;11.00;99.60;;;10.61;86.39;99495.09;4995554;28;20056;-81
2021/04/11 02:02:16;;;;;;;14.13;9.15;;;11.10;99.60;;;10.60;86.34;99496.97;4995303;28;20050;-81
2021/04/11 02:04:45;;;;;;;12.13;8.20;;;11.10;99.40;;;10.63;86.33;99495.72;4998330;28;20046;-81
2021/04/11 02:07:13;;;;;;;11.93;9.02;;;11.00;99.90;;;10.62;86.33;99502.19;4996628;28;20137;-81
2021/04/11 02:09:48;;;;;;;11.48;8.30;;;11.00;99.90;;;10.62;86.29;99496.75;4995941;28;20050;-81
2021/04/11 02:12:36;;;;;;;11.00;8.00;;;11.00;99.90;;;10.63;86.04;99503.88;4997524;28;20141;-81
2021/04/11 02:15:26;;;;;;;14.63;8.35;;;11.10;99.60;;;10.62;85.99;99494.03;4996361;28;20081;-81
2021/04/11 02:17:55;;;;;;;10.90;8.38;;;11.10;99.60;;;10.62;86.31;99497.59;4997015;28;20149;-81
2021/04/11 02:20:23;;;;;;;11.55;8.02;;;11.00;99.90;;;10.63;86.06;99495.72;4997017;28;20053;-81
2021/04/11 02:22:51;;;;;;;12.38;7.82;;;11.00;99.70;;;10.61;86.42;99490.47;4997854;28;20077;-81
2021/04/11 02:25:21;;;;;;;12.95;8.57;;;11.10;99.90;;;10.62;86.49;99491.31;4996590;28;20622;-81
2021/04/11 02:28:01;;;;;;;12.45;8.40;;;11.00;99.90;;;10.63;86.13;99495.72;4995325;28;20050;-81
2021/04/11 02:30:37;;;;;;;12.90;8.80;;;11.10;99.80;;;10.61;87.08;99495.94;4997136;28;20065;-81
2021/04/11 02:33:05;;;;;;;13.85;8.18;;;11.10;99.90;;;10.54;87.34;99511.41;5006243;28;20535;-81
2021/04/11 02:35:33;;;;;;;18.58;10.68;;;11.10;99.40;;;10.51;87.95;99509.13;4995293;28;20073;-81
2021/04/11 02:38:05;;;;;;;37.75;20.67;;;11.10;99.60;;;10.48;88.07;99515.78;4995181;28;20057;-81
2021/04/11 02:40:35;;;;;;;;;;;11.20;99.40;;;10.46;87.28;99517.91;5003751;28;20050;-81
2021/04/11 02:43:13;;;;;;;59.08;30.45;;;11.10;98.50;;;10.41;86.69;99533.16;4997815;28;19922;-81
2021/04/11 02:45:45;;;;;;;60.47;32.45;;;11.00;98.10;;;10.34;85.81;99528.56;4995918;28;20077;-81
2021/04/11 02:48:15;;;;;;;60.47;33.53;;;10.80;97.00;;;10.29;85.24;99527.47;4995716;28;20062;-81
2021/04/11 02:51:03;;;;;;;56.33;31.80;;;10.70;97.00;;;10.27;85.31;99535.00;5002483;28;20061;-81
2021/04/11 02:53:40;;;;;;;57.78;29.40;;;10.50;97.50;;;10.24;84.52;99549.00;4996056;28;20122;-81
2021/04/11 02:56:15;;;;;;;57.92;30.70;;;10.50;97.80;;;10.15;84.67;99543.75;4995374;28;20141;-81
2021/04/11 02:58:44;;;;;;;54.78;30.58;;;10.40;97.40;;;10.10;84.42;99548.13;4995963;28;20137;-81
2021/04/11 03:01:17;;;;;;;55.08;30.20;;;10.40;97.00;;;10.04;84.20;99549.81;5003997;28;20050;-81
2021/04/11 03:03:44;;;;;;;46.63;27.23;;;10.30;97.30;;;10.00;83.82;99558.59;4996144;28;20043;-81
2021/04/11 03:06:19;;;;;;;46.33;25.05;;;10.20;96.90;;;9.99;84.01;99557.72;4996810;28;20045;-81
2021/04/11 03:08:53;;;;;;;44.10;24.02;;;10.20;97.00;;;10.01;83.36;99569.22;4994971;28;20046;-81
2021/04/11 03:11:32;;;;;;;42.17;21.52;;;10.10;96.80;;;9.94;83.42;99560.25;4994170;28;20122;-81
2021/04/11 03:14:02;;;;;;;32.55;17.50;;;10.10;96.70;;;9.89;82.91;99563.53;4995716;28;20152;-81
2021/04/11 03:16:34;;;;;;;32.53;15.02;;;10.00;96.60;;;9.82;82.23;99570.84;4995023;28;20050;-81
2021/04/11 03:19:02;;;;;;;35.72;14.05;;;9.90;96.10;;;9.77;81.98;99573.34;4994654;28;20046;-81
2021/04/11 03:21:31;;;;;;;23.75;11.98;;;9.80;95.30;;;9.74;81.61;99593.59;4995094;28;20188;-81
2021/04/11 03:23:58;;;;;;;27.63;12.80;;;9.70;95.50;;;9.70;81.22;99586.06;4996965;28;20056;-81
2021/04/11 03:26:38;;;;;;;29.05;13.10;;;9.60;95.60;;;9.69;80.99;99595.22;4996049;28;20054;-81
2021/04/11 03:29:15;;;;;;;28.90;13.05;;;9.50;95.50;;;9.60;80.21;99602.72;4995307;28;20046;-81
2021/04/11 03:31:49;;;;;;;29.50;13.82;;;9.40;95.00;;;9.52;80.84;99600.16;4993728;28;20069;-81
2021/04/11 03:34:18;;;;;;;30.80;14.68;;;9.40;95.50;;;9.47;80.58;99608.09;5003336;28;20093;-81
2021/04/11 03:36:47;;;;;;;29.65;15.23;;;9.30;95.80;;;9.47;80.48;99602.66;5010603;28;20563;-81
2021/04/11 03:39:16;;;;;;;32.47;15.45;;;9.20;96.20;;;9.44;80.58;99611.19;4995701;28;20720;-82
2021/04/11 03:41:47;;;;;;;31.92;15.85;;;9.20;96.20;;;9.43;80.66;99612.25;4993811;28;20045;-81
2021/04/11 03:44:22;;;;;;;33.17;16.85;;;9.20;96.50;;;9.33;80.08;99618.84;5003301;28;20038;-81
2021/04/11 03:47:02;;;;;;;37.17;18.08;;;9.10;96.40;;;9.27;80.42;99616.94;4992840;28;20148;-81
2021/04/11 03:49:43;;;;;;;34.72;19.05;;;9.10;96.40;;;9.24;80.57;99620.03;4993750;28;20434;-81
2021/04/11 03:52:29;;;;;;;37.85;19.48;;;9.00;95.70;;;9.22;79.86;99624.84;4996391;28;20062;-81
2021/04/11 03:55:01;;;;;;;34.50;19.27;;;8.90;96.20;;;9.21;80.40;99634.00;4998720;28;20057;-81
2021/04/11 03:57:38;;;;;;;39.40;20.90;;;8.90;96.80;;;9.15;80.03;99635.63;4996480;28;20085;-81
2021/04/11 04:00:14;;;;;;;36.60;20.95;;;8.90;96.50;;;9.11;80.20;99630.81;4998435;28;20039;-81
2021/04/11 04:02:44;;;;;;;37.47;20.20;;;8.80;96.30;;;9.09;79.81;99643.75;4998739;28;20068;-81
2021/04/11 04:05:23;;;;;;;39.60;20.63;;;8.70;96.40;;;9.03;79.56;99644.53;4997597;28;20064;-81
2021/04/11 04:07:57;;;;;;;43.13;22.23;;;8.70;97.20;;;8.93;79.99;99640.28;4998624;28;20042;-81
2021/04/11 04:10:28;;;;;;;39.42;20.83;;;8.70;96.20;;;8.96;80.16;99637.16;4998738;28;20064;-81
2021/04/11 04:13:10;;;;;;;31.00;17.55;;;8.70;96.40;;;8.90;79.21;99634.41;4997117;28;20521;-80
2021/04/11 04:16:09;;;;;;;33.97;17.80;;;8.50;95.30;;;8.87;78.62;99651.91;4998280;28;20560;-81
2021/04/11 04:19:01;;;;;;;33.45;16.95;;;8.50;96.00;;;8.84;78.63;99659.59;4997367;28;20355;-81
2021/04/11 04:21:51;;;;;;;30.85;16.42;;;8.50;95.90;;;8.79;78.57;99649.31;4996285;28;20042;-81
2021/04/11 04:24:40;;;;;;;29.80;15.77;;;8.40;95.20;;;8.72;78.97;99648.41;4998197;28;20038;-81
2021/04/11 04:27:46;;;;;;;32.65;17.60;;;8.30;95.60;;;8.69;78.53;99657.78;4997156;28;20061;-81
2021/04/11 04:30:22;;;;;;;34.95;18.40;;;8.20;95.70;;;8.72;79.07;99661.97;4996871;28;20061;-81
2021/04/11 04:33:22;;;;;;;35.83;18.63;;;8.20;96.70;;;8.66;78.39;99665.47;4996408;28;20427;-80
2021/04/11 04:36:01;;;;;;;38.90;20.48;;;8.20;96.30;;;8.64;78.38;99665.66;4998070;28;20160;-81
2021/04/11 04:38:36;;;;;;;44.75;21.17;;;8.20;96.00;;;8.63;78.49;99674.84;4995118;28;20069;-81
2021/04/11 04:41:16;;;;;;;45.72;22.95;;;8.10;95.70;;;8.60;78.40;99669.78;4996666;28;20042;-80
2021/04/11 04:43:59;;;;;;;36.63;18.13;;;8.10;96.10;;;8.55;78.38;99670.38;4995991;28;20570;-80
2021/04/11 04:46:43;;;;;;;32.10;17.33;;;8.00;95.30;;;8.50;77.70;99680.94;4996391;28;20050;-79
2021/04/11 04:49:17;;;;;;;29.40;15.00;;;8.00;95.10;;;8.45;77.61;99694.22;4994714;28;20053;-79
2021/04/11 04:51:51;;;;;;;24.48;13.35;;;7.90;95.10;;;8.42;77.14;99686.50;4995335;28;20655;-79
2021/04/11 04:54:29;;;;;;;22.60;13.45;;;7.90;95.50;;;8.38;78.21;99693.31;4995905;28;20043;-79
2021/04/11 04:57:06;;;;;;;18.48;11.30;;;7.80;95.60;;;8.38;77.29;99693.31;4995303;28;20524;-79
2021/04/11 04:59:40;;;;;;;15.38;10.90;;;7.80;95.10;;;8.36;76.96;99690.78;4995073;28;20047;-79
2021/04/11 05:02:14;;;;;;;15.98;10.65;;;7.80;94.60;;;8.32;76.53;99681.34;4994551;28;20075;-79
2021/04/11 05:04:58;;;;;;;16.13;11.63;;;7.60;94.20;;;8.29;76.74;99702.56;5011692;28;20101;-79
2021/04/11 05:07:33;;;;;;;16.00;11.05;;;7.60;95.60;;;8.31;76.54;99708.66;4994854;28;20650;-79
2021/04/11 05:10:07;;;;;;;18.35;12.77;;;7.70;95.80;;;8.26;76.65;99708.38;4995221;28;20074;-79
2021/04/11 05:12:51;;;;;;;16.20;11.30;;;7.60;95.00;;;8.21;76.82;99709.78;4994495;28;20093;-79
2021/04/11 05:15:23;;;;;;;16.60;12.25;;;7.60;95.20;;;8.16;76.85;99706.78;4994433;28;20141;-79
2021/04/11 05:18:06;;;;;;;18.65;12.93;;;7.60;95.00;;;8.14;76.58;99719.69;4995069;28;20114;-79
2021/04/11 05:20:44;;;;;;;18.58;13.20;;;7.50;95.00;;;8.13;77.15;99726.16;4995367;28;20050;-79
2021/04/11 05:23:20;;;;;;;19.08;13.27;;;7.50;96.10;;;8.04;77.07;99727.28;4996157;28;20043;-80
2021/04/11 05:26:00;;;;;;;18.42;13.27;;;7.40;96.20;;;7.99;77.25;99741.38;4995986;28;20494;-79
2021/04/11 05:28:39;;;;;;;18.40;13.55;;;7.30;96.60;;;7.97;77.27;99738.00;4995391;28;20069;-80
2021/04/11 05:31:12;;;;;;;19.65;14.32;;;7.30;95.70;;;7.96;77.26;99735.50;4995346;28;20057;-80
2021/04/11 05:33:41;;;;;;;23.90;16.15;;;7.30;96.10;;;7.93;77.22;99746.69;4995523;28;20041;-80
2021/04/11 05:36:35;;;;;;;24.05;16.73;;;7.20;96.20;;;7.91;77.39;99751.47;4996962;28;20046;-80
2021/04/11 05:39:17;;;;;;;27.63;18.50;;;7.30;96.10;;;7.88;76.94;99751.84;4997601;28;20100;-80
2021/04/11 05:41:53;;;;;;;28.83;19.23;;;7.20;95.90;;;7.87;77.31;99769.13;4995786;28;20168;-80
2021/04/11 05:44:26;;;;;;;34.28;21.92;;;7.20;95.90;;;7.85;76.84;99772.03;4995825;28;20038;-79
2021/04/11 05:47:04;;;;;;;36.28;22.50;;;7.10;96.00;;;7.78;76.96;99766.47;4995577;28;20046;-79
2021/04/11 05:49:43;;;;;;;39.47;23.10;;;7.10;95.60;;;7.71;77.31;99776.41;4996588;28;20065;-80
2021/04/11 05:52:17;;;;;;;35.10;22.30;;;7.10;95.90;;;7.70;77.08;99784.69;4996528;28;20057;-80
2021/04/11 05:54:50;;;;;;;37.78;23.27;;;7.00;96.10;;;7.66;77.20;99789.63;4997197;28;20035;-80
2021/04/11 05:57:23;;;;;;;39.70;23.55;;;7.10;95.80;;;7.73;77.23;99796.00;4996858;28;20043;-80
2021/04/11 05:59:56;;;;;;;46.35;25.50;;;7.10;96.00;;;7.74;77.00;99792.25;4995682;28;20045;-80
2021/04/11 06:02:40;;;;;;;52.90;28.63;;;7.10;95.80;;;7.75;76.55;99799.38;4996504;28;20057;-80
2021/04/11 06:05:13;;;;;;;53.90;30.80;;;7.10;95.10;;;7.68;76.31;99797.59;4994526;28;20054;-80
2021/04/11 06:07:50;;;;;;;57.17;30.00;;;7.00;95.00;;;7.68;77.21;99813.84;4995935;28;20038;-79
2021/04/11 06:10:25;;;;;;;51.28;29.52;;;6.90;96.10;;;7.68;76.94;99811.97;4996319;28;20054;-80
2021/04/11 06:12:57;;;;;;;53.97;30.55;;;7.00;95.90;;;7.63;76.77;99812.53;4994247;28;20054;-80
2021/04/11 06:15:28;;;;;;;60.17;31.30;;;7.00;96.00;;;7.70;76.74;99818.03;4994658;28;20081;-80
2021/04/11 06:17:57;;;;;;;61.58;31.90;;;7.00;96.20;;;7.61;76.73;99819.13;4995747;28;20109;-80
2021/04/11 06:20:25;;;;;;;74.90;36.60;;;7.00;95.70;;;7.66;77.12;99824.84;4995551;28;20042;-80
2021/04/11 06:23:04;;;;;;;73.05;37.42;;;7.00;95.60;;;7.66;76.80;99832.97;4995120;28;20054;-80
2021/04/11 06:25:38;;;;;;;73.57;37.85;;;7.00;95.60;;;7.60;77.60;99831.00;4996252;28;20136;-80
2021/04/11 06:28:14;;;;;;;78.35;37.55;;;7.00;95.70;;;7.55;76.59;99834.22;4995174;28;20515;-80
2021/04/11 06:30:51;;;;;;;78.80;38.30;;;7.00;95.20;;;7.54;76.73;99839.81;4995134;28;20507;-80
2021/04/11 06:33:24;;;;;;;74.20;37.08;;;6.90;95.40;;;7.56;76.53;99854.06;4995418;28;20054;-79
2021/04/11 06:35:58;;;;;;;74.50;37.05;;;6.90;96.00;;;7.56;77.01;99837.81;4993515;28;20042;-80
2021/04/11 06:38:34;;;;;;;78.03;38.85;;;6.80;96.20;;;7.49;76.66;99851.22;4995129;28;20042;-80
2021/04/11 06:41:35;;;;;;;68.72;33.42;;;6.80;96.60;;;7.48;77.03;99873.03;4993759;28;20045;-79
2021/04/11 06:44:43;;;;;;;66.70;32.92;;;6.80;96.40;;;7.49;76.50;99875.59;4993679;28;20046;-81
2021/04/11 06:47:54;;;;;;;54.72;29.40;;;6.80;96.30;;;7.46;77.08;99875.09;4994514;28;20085;-80
2021/04/11 06:50:36;;;;;;;56.37;28.03;;;6.80;96.60;;;7.39;77.15;99875.81;4992579;28;20053;-80
2021/04/11 06:53:47;;;;;;;57.97;28.55;;;6.80;95.60;;;7.47;77.12;99879.50;4991850;28;20742;-79
2021/04/11 06:56:36;;;;;;;48.65;25.10;;;6.90;95.70;;;7.43;76.43;99877.13;4995151;28;20042;-80
2021/04/11 06:59:25;;;;;;;47.15;23.23;;;6.90;95.70;;;7.40;76.75;99895.59;4994893;28;20088;-80
2021/04/11 07:02:22;;;;;;;36.63;20.80;;;6.80;96.30;;;7.39;76.97;99883.94;4996419;28;20054;-80
2021/04/11 07:05:13;;;;;;;35.83;20.52;;;6.80;95.90;;;7.41;77.11;99879.19;4996381;28;20054;-79
2021/04/11 07:08:34;;;;;;;30.98;19.23;;;6.90;95.70;;;7.46;77.10;99884.06;4994216;28;20058;-79
2021/04/11 07:12:06;;;;;;;29.60;17.50;;;6.90;95.90;;;7.47;76.58;99903.88;4992845;28;20050;-79
2021/04/11 07:15:18;;;;;;;30.23;16.45;;;6.90;95.30;;;7.46;76.89;99904.88;4993487;28;20044;-79
2021/04/11 07:18:25;;;;;;;;;;;6.90;95.40;;;7.48;76.16;99902.81;4988816;28;20061;-79
2021/04/11 07:21:40;;;;;;;24.48;14.73;;;6.90;95.60;;;7.47;76.74;99890.34;4993029;28;19937;-80
2021/04/11 07:24:46;;;;;;;21.05;13.25;;;6.90;95.90;;;7.47;76.55;99896.59;4990018;28;20054;-79
2021/04/11 07:27:49;;;;;;;19.05;12.52;;;7.00;95.70;;;7.45;77.55;99890.50;4969288;28;20055;-81
2021/04/11 07:30:32;;;;;;;16.10;10.00;;;7.00;95.50;;;7.48;77.04;99884.72;4972064;28;20109;-80
2021/04/11 07:33:52;;;;;;;16.63;10.25;;;7.00;95.50;;;7.50;76.78;99898.06;4995351;28;20042;-81
2021/04/11 07:36:47;;;;;;;19.25;12.32;;;7.00;95.30;;;7.47;76.74;99890.34;4997455;28;20053;-81
2021/04/11 07:39:44;;;;;;;20.63;12.90;;;7.00;95.10;;;7.48;76.59;99903.66;4993681;28;20053;-82
2021/04/11 07:42:44;;;;;;;26.17;14.32;;;7.00;94.80;;;7.50;76.64;99908.91;4996188;28;20047;-82
2021/04/11 07:45:33;;;;;;;22.48;14.40;;;7.00;94.90;;;7.50;76.96;99907.06;4996367;28;20541;-83
2021/04/11 07:49:01;;;;;;;24.25;15.68;;;7.00;95.20;;;7.49;76.98;99920.78;4992988;28;20045;-83
2021/04/11 07:52:03;;;;;;;22.80;14.82;;;7.00;95.10;;;7.48;76.41;99924.50;4984849;28;20062;-83
2021/04/11 07:54:57;;;;;;;21.40;13.18;;;6.90;95.10;;;7.44;77.23;99924.88;4991425;28;20057;-80
2021/04/11 07:58:14;;;;;;;16.83;10.80;;;7.00;95.80;;;7.45;76.45;99933.81;4993949;28;20507;-80
2021/04/11 08:01:16;;;;;;;12.55;8.40;;;6.90;95.30;;;7.42;76.60;99935.03;4993388;28;20476;-80
2021/04/11 08:04:22;;;;;;;11.80;7.38;;;6.90;95.10;;;7.43;76.56;99942.13;4992413;28;20053;-80
2021/04/11 08:07:28;;;;;;;9.38;5.80;;;6.90;94.90;;;7.32;76.40;99939.81;4973251;28;20058;-80
2021/04/11 08:10:18;;;;;;;8.80;5.40;;;6.90;95.00;;;7.38;76.84;99939.09;4992253;28;20057;-80
2021/04/11 08:13:35;;;;;;;11.23;5.85;;;6.90;95.40;;;7.33;76.64;99952.34;4992914;28;20065;-79
2021/04/11 08:16:17;;;;;;;8.90;5.57;;;6.90;94.90;;;7.34;77.31;99954.00;4992711;28;20069;-80
2021/04/11 08:19:50;;;;;;;10.13;5.88;;;6.90;95.70;;;7.33;77.58;99957.75;4991260;28;20118;-79
2021/04/11 08:22:45;;;;;;;8.90;5.63;;;6.90;96.50;;;7.32;77.84;99963.34;4991281;28;20057;-81
2021/04/11 08:25:27;;;;;;;8.30;4.68;;;6.90;96.60;;;7.28;77.79;99975.53;4991816;28;20057;-80
2021/04/11 08:28:39;;;;;;;8.85;5.53;;;6.90;95.60;;;7.36;76.92;99979.03;4993566;28;20049;-82
2021/04/11 08:32:11;;;;;;;8.10;4.70;;;7.00;94.70;;;7.35;77.06;99987.31;4972190;28;20116;-81
2021/04/11 08:35:20;;;;;;;7.55;4.20;;;7.00;94.60;;;7.39;77.22;99999.50;4988602;28;20050;-81
2021/04/11 08:38:33;;;;;;;6.93;4.32;;;6.90;95.10;;;7.38;76.92;99998.66;4981315;28;20085;-81
2021/04/11 08:41:48;;;;;;;6.03;3.83;;;6.90;95.10;;;7.38;76.74;100006.78;4993048;28;20049;-82
2021/04/11 08:44:46;;;;;;;6.03;4.00;;;6.90;95.10;;;7.41;76.50;100002.88;4994186;28;20491;-81
2021/04/11 08:47:31;;;;;;;6.63;4.00;;;6.90;95.10;;;7.39;76.11;100002.22;4972325;28;20047;-82
2021/04/11 08:50:00;;;;;;;7.10;4.25;;;7.00;94.70;;;7.34;76.61;100018.13;4994944;28;20053;-81
2021/04/11 08:52:39;;;;;;;8.20;4.25;;;6.90;95.00;;;7.33;77.14;100016.44;4994079;28;20372;-82
2021/04/11 08:55:19;;;;;;;6.80;4.05;;;6.90;96.10;;;7.31;77.01;100013.94;4993945;28;20043;-81
2021/04/11 08:58:18;;;;;;;5.28;3.33;;;6.90;95.60;;;7.29;76.80;100023.22;4993667;28;20038;-81
2021/04/11 09:00:49;;;;;;;4.57;3.00;;;6.90;95.00;;;7.31;76.48;100030.16;4993557;28;20043;-81
2021/04/11 09:03:46;;;;;;;4.28;2.75;;;6.90;94.80;;;7.31;76.92;100035.59;4993800;28;20046;-82
2021/04/11 09:06:27;;;;;;;3.78;2.67;;;6.90;95.30;;;7.37;75.98;100034.03;4993296;28;20558;-81
2021/04/11 09:09:16;;;;;;;4.78;3.22;;;6.90;94.80;;;7.29;77.28;100037.63;4993225;28;20042;-82
2021/04/11 09:11:49;;;;;;;4.45;2.75;;;6.90;95.10;;;7.29;76.76;100043.03;4993192;28;20050;-82
2021/04/11 09:14:34;;;;;;;4.43;2.42;;;6.90;94.40;;;7.35;76.78;100044.16;4992356;28;20042;-81
2021/04/11 09:17:18;;;;;;;3.63;2.20;;;7.00;95.00;;;7.22;75.95;100048.28;4993574;28;20152;-81
2021/04/11 09:19:56;;;;;;;3.63;2.50;;;7.00;94.10;;;7.28;76.79;100049.44;4992206;28;20050;-81
2021/04/11 09:22:43;;;;;;;4.25;2.38;;;7.10;94.00;;;7.30;76.70;100060.13;4993789;28;20058;-82
2021/04/11 09:25:15;;;;;;;3.50;2.13;;;7.00;93.40;;;7.33;76.20;100055.19;4992211;28;20168;-81
2021/04/11 09:28:36;;;;;;;4.93;2.22;;;7.00;93.70;;;7.36;76.58;100067.53;4991680;28;20053;-81
2021/04/11 09:31:41;;;;;;;4.38;2.65;;;7.00;93.90;;;7.33;76.53;100071.44;4992871;28;20050;-82
2021/04/11 09:34:46;;;;;;;3.20;1.77;;;7.00;94.30;;;7.35;76.11;100074.81;4992765;28;20042;-81
2021/04/11 09:37:42;;;;;;;3.95;2.10;;;6.90;93.50;;;7.31;76.45;100092.44;4993496;28;20360;-82
2021/04/11 09:40:20;;;;;;;6.28;2.55;;;7.00;93.90;;;7.29;75.49;100086.34;4993258;28;20380;-82
2021/04/11 09:43:03;;;;;;;8.27;2.30;;;6.90;93.40;;;7.30;76.06;100095.31;4993053;28;20064;-81
2021/04/11 09:46:02;;;;;;;4.05;2.25;;;6.90;93.90;;;7.31;76.40;100099.69;4992773;28;20125;-82
2021/04/11 09:48:45;;;;;;;4.28;2.17;;;6.90;94.20;;;7.23;76.54;100092.44;4991314;28;20047;-81
2021/04/11 09:51:40;;;;;;;3.72;1.92;;;6.80;94.40;;;7.31;76.33;100100.53;4990332;28;20710;-81
2021/04/11 09:54:27;;;;;;;4.03;1.80;;;6.90;94.50;;;7.28;76.10;100106.28;4989935;28;20124;-81
2021/04/11 09:57:30;;;;;;;3.72;2.15;;;6.90;94.00;;;7.28;76.59;100098.19;4992846;28;20047;-81
2021/04/11 10:00:19;;;;;;;5.32;3.17;;;6.90;94.30;;;7.26;76.05;100097.50;4991011;28;20050;-82
2021/04/11 10:03:43;;;;;;;4.82;3.25;;;6.90;93.70;;;7.24;76.75;100107.66;4991596;28;20054;-82
2021/04/11 10:06:37;;;;;;;6.45;3.55;;;6.90;94.30;;;7.33;76.87;100103.91;4991637;28;20050;-82
2021/04/11 10:09:36;;;;;;;4.85;3.10;;;6.90;94.30;;;7.30;76.43;100106.97;4992392;28;20045;-82
2021/04/11 10:12:38;;;;;;;5.10;3.17;;;6.90;94.40;;;7.31;75.60;100111.38;4985292;28;20789;-82
2021/04/11 10:15:12;;;;;;;;;;;7.00;93.80;;;7.32;76.02;100125.75;4990267;28;20097;-81
2021/04/11 10:18:14;;;;;;;4.15;2.45;;;7.00;93.60;;;7.34;75.77;100126.41;4992596;28;19925;-81
2021/04/11 10:20:54;;;;;;;4.70;2.53;;;7.00;93.90;;;7.32;76.36;100128.44;4993442;28;20045;-82
2021/04/11 10:23:34;;;;;;;6.40;3.00;;;7.00;94.10;;;7.31;76.64;100124.91;4992207;28;20097;-81
2021/04/11 10:26:10;;;;;;;7.15;4.28;;;7.00;94.40;;;7.31;76.92;100127.63;4991277;28;20062;-81
2021/04/11 10:28:46;;;;;;;5.70;3.53;;;7.00;94.20;;;7.33;76.11;100136.41;4992989;28;20038;-81
2021/04/11 10:31:28;;;;;;;6.28;3.33;;;7.00;93.60;;;7.34;76.85;100127.25;4992582;28;20034;-81
2021/04/11 10:34:06;;;;;;;5.90;2.72;;;7.00;94.30;;;7.34;77.05;100124.53;4991900;28;20054;-81
2021/04/11 10:36:40;;;;;;;4.70;2.63;;;7.00;94.20;;;7.32;77.07;100134.69;4992435;28;20042;-82
2021/04/11 10:39:18;;;;;;;5.15;3.30;;;7.10;93.70;;;7.28;77.07;100138.78;4991997;28;20049;-81
2021/04/11 10:42:04;;;;;;;4.88;3.00;;;7.10;94.80;;;7.31;77.44;100138.44;4990773;28;20049;-82
2021/04/11 10:45:15;;;;;;;5.03;2.70;;;7.10;95.20;;;7.35;76.97;100145.19;4991586;28;20663;-82
2021/04/11 10:48:32;;;;;;;4.60;2.80;;;7.10;94.90;;;7.38;77.10;100158.38;4991609;28;20046;-82
2021/04/11 10:51:35;;;;;;;4.22;2.97;;;7.10;94.50;;;7.38;77.16;100158.38;4992106;28;20038;-82
2021/04/11 10:54:29;;;;;;;7.22;2.72;;;7.10;94.60;;;7.46;76.69;100165.63;4991700;28;20039;-82
2021/04/11 10:57:32;;;;;;;4.75;2.90;;;7.10;94.30;;;7.44;76.17;100160.41;4993365;28;20873;-81
2021/04/11 11:00:11;;;;;;;4.40;3.10;;;7.10;92.80;;;7.45;76.19;100169.38;4983547;28;20547;-82
2021/04/11 11:03:25;;;;;;;5.97;2.88;;;7.10;93.40;;;7.35;76.30;100177.69;4991246;28;20046;-81
2021/04/11 11:06:38;;;;;;;4.72;2.88;;;7.10;93.30;;;7.38;76.66;100177.31;4991084;28;20050;-82
2021/04/11 11:09:24;;;;;;;4.47;2.63;;;7.10;93.50;;;7.44;77.36;100179.34;4991380;28;20046;-81
2021/04/11 11:12:26;;;;;;;5.05;2.65;;;7.10;94.40;;;7.43;76.92;100174.94;4991692;28;20050;-82
2021/04/11 11:15:14;;;;;;;3.55;2.25;;;7.20;94.20;;;7.41;76.95;100182.41;4991259;28;20046;-81
2021/04/11 11:18:10;;;;;;;3.75;2.17;;;7.20;93.90;;;7.44;75.62;100182.06;4990099;28;20061;-82
2021/04/11 11:20:54;;;;;;;5.35;1.80;;;7.20;92.60;;;7.40;76.37;100183.41;4989889;28;20419;-81
2021/04/11 11:24:12;;;;;;;4.53;2.13;;;7.20;93.40;;;7.40;76.35;100196.94;4992357;28;20046;-81
2021/04/11 11:27:23;;;;;;;3.92;2.28;;;7.20;93.00;;;7.42;76.43;100197.63;4986785;28;20081;-81